M I D A S
Marine Information and Data Acquisition System
Tripno 654 of the Zeeleeuw from 2004-02-24 07:13:44 to 2004-02-24 14:12:10
Back to CruiseResearch ActivitiesStationsMapUnderway DataData graphs

EquipmentUnitsComment
TimeDGPSUTC
LatitudeDGPSDM.mWGS84
LongitudeDGPSDM.mWGS84
HeadingGyrodeg 
SOGDGPSknotsSpeed over ground
COGDGPSdegCourse over ground
DepthEcho soundermeters200 kHz
Missing or incorrect values are displayed as -999
Navigation data collected by the RV Zeeleeuw from 2004-02-24 07:13:44 to 2004-02-24 14:12:10
                                                                                    Next 1000 lines
Time Latitude Longitude Heading SOG COG Depth
2004-02-24 07:13:53 51°13.592 2°56.111 126 0.1 141 6.7
2004-02-24 07:13:58 51°13.592 2°56.111 125.4   102 6.7
2004-02-24 07:14:02 51°13.592 2°56.111 124.8   103 6.7
2004-02-24 07:14:08 51°13.592 2°56.109 123.7   174 6.7
2004-02-24 07:14:13 51°13.592 2°56.109 123.1   175 6.8
2004-02-24 07:14:18 51°13.592 2°56.109 122.1 0.1 184 6.7
2004-02-24 07:14:23 51°13.592 2°56.109 121.5   178 6.7
2004-02-24 07:14:28 51°13.592 2°56.109 120.8   211 6.8
2004-02-24 07:14:33 51°13.592 2°56.109 120.1   184 6.8
2004-02-24 07:14:38 51°13.592 2°56.109 119.7   195 6.8
2004-02-24 07:14:42 51°13.592 2°56.109 119.6   202 6.8
2004-02-24 07:14:48 51°13.593 2°56.109 119.5   207 6.8
2004-02-24 07:14:53 51°13.593 2°56.11 119.3   56 6.7
2004-02-24 07:14:58 51°13.593 2°56.11 119.3   348 6.8
2004-02-24 07:15:02 51°13.593 2°56.11 119.2   37 6.8
2004-02-24 07:15:08 51°13.593 2°56.11 119.2   12 6.7
2004-02-24 07:15:12 51°13.593 2°56.11 119.2   13 6.8
2004-02-24 07:15:18 51°13.593 2°56.11 119.4   1 6.7
2004-02-24 07:15:23 51°13.593 2°56.11 119.8   19 6.7
2004-02-24 07:15:28 51°13.593 2°56.11 120.3   28 6.7
2004-02-24 07:15:32 51°13.593 2°56.11 120.6   28 6.7
2004-02-24 07:15:38 51°13.593 2°56.11 121.2   22 6.7
2004-02-24 07:15:42 51°13.593 2°56.11 121.7   18 6.7
2004-02-24 07:15:48 51°13.593 2°56.11 122.1   6 6.8
2004-02-24 07:15:53 51°13.593 2°56.11 122.5   343 6.7
2004-02-24 07:15:58 51°13.593 2°56.11 122.9   269 6.7
2004-02-24 07:16:03 51°13.593 2°56.11 123.2   173 6.7
2004-02-24 07:16:08 51°13.593 2°56.11 123.3   169 6.7
2004-02-24 07:16:12 51°13.593 2°56.11 123.3   169 6.7
2004-02-24 07:16:18 51°13.593 2°56.11 122.9   166 6.9
2004-02-24 07:16:22 51°13.593 2°56.11 122.5   164 6.7
2004-02-24 07:16:28 51°13.593 2°56.11 122   131 6.7
2004-02-24 07:16:33 51°13.593 2°56.11 121.3 0.1 176 6.7
2004-02-24 07:16:38 51°13.593 2°56.11 120 0.1 189 6.7
2004-02-24 07:16:42 51°13.593 2°56.11 118.4 0.1 185 6.7
2004-02-24 07:16:48 51°13.593 2°56.11 116.8 0.1 182 6.8
2004-02-24 07:16:53 51°13.592 2°56.11 114.8 0.1 182 6.8
2004-02-24 07:16:58 51°13.592 2°56.11 113 0.1 175 6.8
2004-02-24 07:17:03 51°13.592 2°56.109 111.8 0.2 271 6.9
2004-02-24 07:17:08 51°13.593 2°56.107 111.3 0.4 281 6.9
2004-02-24 07:17:13 51°13.593 2°56.105 111.1 1.1 286 6.9
2004-02-24 07:17:18 51°13.594 2°56.101 111.2 1.5 286 6.8
2004-02-24 07:17:23 51°13.595 2°56.097 111.8 1.9 288 7
2004-02-24 07:17:28 51°13.596 2°56.092 112.9 2.4 290 -999
2004-02-24 07:17:33 51°13.597 2°56.086 114.5 2.7 292 -999
2004-02-24 07:17:38 51°13.599 2°56.08 116.5 3.1 294 -999
2004-02-24 07:17:44 51°13.602 2°56.072 118.2 3.2 295 -999
2004-02-24 07:17:48 51°13.604 2°56.067 119.6 3.6 298 -999
2004-02-24 07:17:54 51°13.607 2°56.058 120.2 3.8 299 -999
2004-02-24 07:17:58 51°13.609 2°56.052 120.4 3.9 298 -999
2004-02-24 07:18:04 51°13.612 2°56.042 119.9 4.1 298 -999
2004-02-24 07:18:08 51°13.614 2°56.034 119.4 4.5 296 -999
2004-02-24 07:18:14 51°13.618 2°56.023 119 4.6 297 -999
2004-02-24 07:18:18 51°13.62 2°56.016 118.9 4.7 295 -999
2004-02-24 07:18:24 51°13.624 2°56.004 118.9 4.8 296 -999
2004-02-24 07:18:29 51°13.627 2°55.994 119.3 5 296 -999
2004-02-24 07:18:34 51°13.63 2°55.984 119.7 5.1 296 -999
2004-02-24 07:18:38 51°13.633 2°55.976 120.4 5.2 297 -999
2004-02-24 07:18:44 51°13.637 2°55.963 120.9 5.3 297 -999
2004-02-24 07:18:48 51°13.64 2°55.955 121.2 5.3 298 -999
2004-02-24 07:18:53 51°13.643 2°55.944 121.2 5.4 298 -999
2004-02-24 07:18:58 51°13.647 2°55.934 121.3 5.4 299 -999
2004-02-24 07:19:04 51°13.651 2°55.921 121.2 5.4 299 -999
2004-02-24 07:19:09 51°13.654 2°55.911 120.6 5.4 299 -999
2004-02-24 07:19:14 51°13.658 2°55.9 119.9 5.4 298 -999
2004-02-24 07:19:18 51°13.66 2°55.892 118.9 5.4 298 -999
2004-02-24 07:19:24 51°13.664 2°55.879 117.9 5.4 296 -999
2004-02-24 07:19:29 51°13.668 2°55.868 116.1 5.4 294 -999
2004-02-24 07:19:34 51°13.67 2°55.857 114.7 5.4 293 -999
2004-02-24 07:19:39 51°13.673 2°55.845 112.7 5.4 292 -999
2004-02-24 07:19:44 51°13.676 2°55.834 111.3 5.4 291 -999
2004-02-24 07:19:49 51°13.678 2°55.823 109.9 5.4 289 -999
2004-02-24 07:19:53 51°13.68 2°55.814 108.7 5.5 288 -999
2004-02-24 07:19:58 51°13.682 2°55.802 107.4 5.5 287 -999
2004-02-24 07:20:04 51°13.685 2°55.789 106 5.4 286 -999
2004-02-24 07:20:09 51°13.686 2°55.779 105.2 4.8 285 -999
2004-02-24 07:20:13 51°13.687 2°55.773 103.8 4.1 283 -999
2004-02-24 07:20:18 51°13.688 2°55.767 101.3 3.2 283 12.7
2004-02-24 07:20:22 51°13.688 2°55.764 97.8 2.2 284 13
2004-02-24 07:20:28 51°13.689 2°55.763 92.9 0.5 330 13.1
2004-02-24 07:20:32 51°13.69 2°55.764 85.3 0.6 23 13.1
2004-02-24 07:20:38 51°13.691 2°55.765 76.9 0.9 35 13.1
2004-02-24 07:20:42 51°13.693 2°55.768 68.9 1.3 41 13.1
2004-02-24 07:20:48 51°13.696 2°55.771 60.8 2 35 13.2
2004-02-24 07:20:53 51°13.698 2°55.774 52.2 2.3 32 13.1
2004-02-24 07:20:58 51°13.702 2°55.776 43.6 2.6 26 12.8
2004-02-24 07:21:02 51°13.705 2°55.778 35 2.8 20 12.6
2004-02-24 07:21:08 51°13.709 2°55.779 26.8 2.7 12 12.3
2004-02-24 07:21:12 51°13.712 2°55.779 21.5 2.2 8 12.3
2004-02-24 07:21:18 51°13.714 2°55.779 18.7 1.6 7 12
2004-02-24 07:21:22 51°13.715 2°55.779 14.8 1.1 356 11.5
2004-02-24 07:21:28 51°13.715 2°55.779 10.6 0.4 339 11.5
2004-02-24 07:21:33 51°13.714 2°55.778 8.6 0.4 232 11.5
2004-02-24 07:21:38 51°13.713 2°55.777 7.2 0.7 203 11.9
2004-02-24 07:21:42 51°13.712 2°55.776 6.4 1.1 201 12.1
2004-02-24 07:21:48 51°13.709 2°55.775 5.2 1.7 192 -999
2004-02-24 07:21:54 51°13.705 2°55.774 4.5 2 192 -999
2004-02-24 07:21:58 51°13.703 2°55.773 3.8 2 191 -999
2004-02-24 07:22:04 51°13.701 2°55.772 3.8 1.7 196 -999
2004-02-24 07:22:08 51°13.7 2°55.771 3.4 0.7 215 -999
2004-02-24 07:22:14 51°13.701 2°55.77 1.4 0.5 306 -999
2004-02-24 07:22:18 51°13.703 2°55.769 354.7 1.7 334 -999
2004-02-24 07:22:24 51°13.707 2°55.766 349.3 2.1 335 -999
2004-02-24 07:22:29 51°13.711 2°55.763 342.4 2.8 331 -999
2004-02-24 07:22:34 51°13.714 2°55.76 339.2 2.9 330 -999
2004-02-24 07:22:38 51°13.718 2°55.756 336 3.2 328 -999
2004-02-24 07:22:43 51°13.722 2°55.752 333.9 3.8 327 12.1
2004-02-24 07:22:48 51°13.727 2°55.746 331.2 4.3 324 10.6
2004-02-24 07:22:53 51°13.732 2°55.74 329.7 4.6 324 9.9
2004-02-24 07:22:58 51°13.738 2°55.733 328.8 4.9 323 9.1
2004-02-24 07:23:03 51°13.744 2°55.726 328.2 5.3 323 9.1
2004-02-24 07:23:08 51°13.75 2°55.719 328 5.7 323 9
2004-02-24 07:23:13 51°13.757 2°55.711 328 4.4 324 8.8
2004-02-24 07:23:18 51°13.764 2°55.703 328.1 5.6 325 8.9
2004-02-24 07:23:22 51°13.77 2°55.697 329 6.3 325 8.9
2004-02-24 07:23:28 51°13.779 2°55.687 330.1 6.5 326 9
2004-02-24 07:23:32 51°13.785 2°55.68 330.3 6.6 326 9.1
2004-02-24 07:23:38 51°13.794 2°55.67 329.9 6.8 326 9.2
2004-02-24 07:23:42 51°13.801 2°55.663 329.8 6.9 326 9.4
2004-02-24 07:23:48 51°13.811 2°55.653 330.9 7 327 9.6
2004-02-24 07:23:53 51°13.819 2°55.646 332 7.2 330 9.7
2004-02-24 07:23:58 51°13.828 2°55.638 333.7 7.3 331 9.6
2004-02-24 07:24:02 51°13.835 2°55.632 335.7 7.4 333 9.7
2004-02-24 07:24:08 51°13.847 2°55.622 336.8 7.8 333 9.5
2004-02-24 07:24:13 51°13.857 2°55.614 336.6 8 332 9.1
2004-02-24 07:24:18 51°13.866 2°55.605 336.2 8.1 333 9.2
2004-02-24 07:24:22 51°13.875 2°55.598 336.2 8.3 332 8.9
2004-02-24 07:24:28 51°13.887 2°55.588 336.5 8.5 333 9
2004-02-24 07:24:33 51°13.898 2°55.579 337.1 8.6 332 9
2004-02-24 07:24:38 51°13.908 2°55.57 336.9 8.8 332 9.1
2004-02-24 07:24:42 51°13.917 2°55.563 336.8 8.9 332 9
2004-02-24 07:24:48 51°13.93 2°55.551 336.8 8.9 331 9
2004-02-24 07:24:53 51°13.942 2°55.542 337.6 9.1 333 9.1
2004-02-24 07:24:58 51°13.953 2°55.533 337.7 9.1 333 9.1
2004-02-24 07:25:03 51°13.964 2°55.524 337.7 9.2 333 9.1
2004-02-24 07:25:08 51°13.976 2°55.514 337.6 9.2 334 9.4
2004-02-24 07:25:13 51°13.988 2°55.505 337.5 9.3 334 9.4
2004-02-24 07:25:18 51°13.999 2°55.496 337.8 9.2 334 9.5
2004-02-24 07:25:22 51°14.008 2°55.489 338.2 9 335 9.5
2004-02-24 07:25:28 51°14.021 2°55.479 338.8 8.8 334 9.4
2004-02-24 07:25:33 51°14.032 2°55.471 339 8.6 335 8.4
2004-02-24 07:25:38 51°14.042 2°55.464 340.1 8.5 336 9
2004-02-24 07:25:42 51°14.051 2°55.458 341.1 8.3 337 8.7
2004-02-24 07:25:48 51°14.063 2°55.449 341.3 8.3 336 9.1
2004-02-24 07:25:53 51°14.074 2°55.442 341.1 8.2 337 9.1
2004-02-24 07:25:58 51°14.085 2°55.435 341.5 8.4 337 9.1
2004-02-24 07:26:04 51°14.098 2°55.425 342.1 8.8 337 9.1
2004-02-24 07:26:08 51°14.107 2°55.419 342.3 9.1 338 8.8
2004-02-24 07:26:13 51°14.119 2°55.412 342.5 9.2 338 8.4
2004-02-24 07:26:18 51°14.131 2°55.404 342.5 9.3 338 9.1
2004-02-24 07:26:22 51°14.141 2°55.397 342.3 9.6 337 9.5
2004-02-24 07:26:28 51°14.156 2°55.386 341.3 9.7 335 9.5
2004-02-24 07:26:33 51°14.168 2°55.376 340.3 9.8 334 9.5
2004-02-24 07:26:38 51°14.18 2°55.366 338.2 9.9 332 9.5
2004-02-24 07:26:43 51°14.192 2°55.354 335.9 9.9 329 9.5
2004-02-24 07:26:48 51°14.203 2°55.341 333.3 9.9 327 9.4
2004-02-24 07:26:53 51°14.214 2°55.328 330.4 10.2 323 9.5
2004-02-24 07:26:58 51°14.226 2°55.313 327.8 10.3 322 9.5
2004-02-24 07:27:03 51°14.236 2°55.298 326.2 10.4 319 9.5
2004-02-24 07:27:08 51°14.247 2°55.282 323.7 10.5 317 9.5
2004-02-24 07:27:13 51°14.258 2°55.266 322.2 10.6 316 9.5
2004-02-24 07:27:18 51°14.268 2°55.248 320.3 10.8 313 9.4
2004-02-24 07:27:22 51°14.276 2°55.234 318.6 11 311 10.1
2004-02-24 07:27:28 51°14.288 2°55.211 316.7 11.2 311 9.5
2004-02-24 07:27:32 51°14.296 2°55.196 315.5 11.4 310 9.5
2004-02-24 07:27:38 51°14.309 2°55.173 315.4 11.5 311 9.5
2004-02-24 07:27:43 51°14.319 2°55.153 315.9 11.6 311 9.5
2004-02-24 07:27:48 51°14.33 2°55.134 315.9 11.8 311 9.5
2004-02-24 07:27:53 51°14.34 2°55.113 315.6 11.8 310 9.6
2004-02-24 07:27:58 51°14.351 2°55.093 314.7 11.8 309 9.4
2004-02-24 07:28:02 51°14.359 2°55.077 314.3 11.9 310 9.6
2004-02-24 07:28:08 51°14.372 2°55.053 314.4 12 311 9.7
2004-02-24 07:28:12 51°14.381 2°55.037 315.4 12 310 9.8
2004-02-24 07:28:18 51°14.394 2°55.013 315.9 12 310 10.3
2004-02-24 07:28:22 51°14.402 2°54.996 315.5 12.2 308 9.7
2004-02-24 07:28:28 51°14.414 2°54.969 313.7 12.2 305 9.8
2004-02-24 07:28:33 51°14.423 2°54.946 312.8 12.3 303 9.9
2004-02-24 07:28:38 51°14.432 2°54.922 311.9 12.3 301 9.9
2004-02-24 07:28:43 51°14.44 2°54.898 310.2 12.4 299 9.8
2004-02-24 07:28:48 51°14.448 2°54.875 308.8 12 300 9.8
2004-02-24 07:28:53 51°14.456 2°54.854 308.5 11.5 300 9.7
2004-02-24 07:28:58 51°14.464 2°54.833 309.5 11.2 301 9.8
2004-02-24 07:29:03 51°14.472 2°54.813 310.9 10.9 302 10
2004-02-24 07:29:08 51°14.48 2°54.794 312.4 10.3 304 9.9
2004-02-24 07:29:13 51°14.488 2°54.777 314.2 9.9 306 9.9
2004-02-24 07:29:18 51°14.496 2°54.761 316.3 9.5 307 9.9
2004-02-24 07:29:22 51°14.503 2°54.748 318.3 9.1 309 9.8
2004-02-24 07:29:28 51°14.512 2°54.73 320 8.9 311 9.8
2004-02-24 07:29:33 51°14.521 2°54.716 321.4 8.7 312 9.8
2004-02-24 07:29:38 51°14.529 2°54.703 322.9 8.5 312 9.8
2004-02-24 07:29:42 51°14.535 2°54.692 323.6 8.4 312 9.8
2004-02-24 07:29:48 51°14.544 2°54.676 323.8 8.1 313 9.7
2004-02-24 07:29:53 51°14.552 2°54.663 323.7 8 313 9.6
2004-02-24 07:29:58 51°14.559 2°54.651 323.5 7.9 313 9.6
2004-02-24 07:30:02 51°14.565 2°54.641 323.6 7.8 313 9.5
2004-02-24 07:30:08 51°14.574 2°54.626 323.3 7.8 313 9.5
2004-02-24 07:30:13 51°14.581 2°54.613 323.1 7.7 312 9.5
2004-02-24 07:30:18 51°14.588 2°54.6 322.7 7.7 312 9.6
2004-02-24 07:30:22 51°14.593 2°54.59 322.1 7.5 312 9.4
2004-02-24 07:30:28 51°14.602 2°54.576 321.4 7.5 312 9.5
2004-02-24 07:30:33 51°14.608 2°54.563 320.8 7.5 310 9.5
2004-02-24 07:30:38 51°14.615 2°54.551 320.4 7.5 311 9.4
2004-02-24 07:30:43 51°14.622 2°54.538 320 7.4 310 9.3
2004-02-24 07:30:48 51°14.628 2°54.525 319.4 7.4 310 9.4
2004-02-24 07:30:53 51°14.635 2°54.513 319.1 7.4 309 9.5
2004-02-24 07:30:58 51°14.641 2°54.5 318.5 7.4 309 9.5
2004-02-24 07:31:02 51°14.646 2°54.49 318 7.3 308 9.5
2004-02-24 07:31:08 51°14.654 2°54.474 317.3 7.4 308 9.5
2004-02-24 07:31:12 51°14.659 2°54.464 316.8 7.3 307 9.6
2004-02-24 07:31:18 51°14.666 2°54.449 316 7.3 307 9.5
2004-02-24 07:31:22 51°14.671 2°54.438 315.4 7.3 306 9.6
2004-02-24 07:31:28 51°14.678 2°54.423 314.6 7.4 306 9.5
2004-02-24 07:31:33 51°14.684 2°54.41 314.7 7.2 306 9.5
2004-02-24 07:31:38 51°14.69 2°54.398 315.1 7.2 307 9.5
2004-02-24 07:31:43 51°14.696 2°54.385 315.7 7.2 308 9.5
2004-02-24 07:31:48 51°14.702 2°54.373 316.5 7.2 309 9.5
2004-02-24 07:31:53 51°14.709 2°54.361 317.4 7.1 311 9.5
2004-02-24 07:31:58 51°14.715 2°54.349 318.6 7.1 311 9.6
2004-02-24 07:32:03 51°14.722 2°54.338 319.7 7.1 313 9.5
2004-02-24 07:32:08 51°14.729 2°54.327 321 7.1 313 9.8
2004-02-24 07:32:13 51°14.736 2°54.315 321.9 7.1 314 9.7
2004-02-24 07:32:18 51°14.743 2°54.305 322.9 7 316 9.8
2004-02-24 07:32:22 51°14.748 2°54.296 323.8 7 317 9.8
2004-02-24 07:32:28 51°14.757 2°54.284 324.8 7 318 9.6
2004-02-24 07:32:33 51°14.764 2°54.273 326 7 318 9.5
2004-02-24 07:32:38 51°14.772 2°54.264 327.1 6.9 320 9.6
2004-02-24 07:32:43 51°14.779 2°54.254 327.7 6.9 320 9.6
2004-02-24 07:32:48 51°14.787 2°54.244 328.5 6.9 321 9.3
2004-02-24 07:32:53 51°14.794 2°54.234 328.8 6.9 321 9.4
2004-02-24 07:32:58 51°14.802 2°54.225 328.7 6.9 321 9.3
2004-02-24 07:33:02 51°14.808 2°54.217 329.3 6.9 322 9.4
2004-02-24 07:33:08 51°14.817 2°54.206 329.5 7 322 9.9
2004-02-24 07:33:12 51°14.823 2°54.199 329.8 7 323 9.3
2004-02-24 07:33:18 51°14.832 2°54.188 329.9 6.9 322 9.1
2004-02-24 07:33:22 51°14.838 2°54.18 330 7.1 322 9
2004-02-24 07:33:28 51°14.849 2°54.167 329.8 7.8 322 8.9
2004-02-24 07:33:32 51°14.856 2°54.158 329.3 8.5 322 8.8
2004-02-24 07:33:38 51°14.868 2°54.143 328.9 9.1 322 8.7
2004-02-24 07:33:42 51°14.877 2°54.132 329.4 9.6 323 8.6
2004-02-24 07:33:48 51°14.891 2°54.116 330.2 10.4 323 8.6
2004-02-24 07:33:53 51°14.903 2°54.101 330.4 10.9 323 8.2
2004-02-24 07:33:58 51°14.916 2°54.086 330 11.3 322 8.3
2004-02-24 07:34:02 51°14.926 2°54.073 329.1 11.8 322 8.4
2004-02-24 07:34:08 51°14.942 2°54.053 328.9 12.1 322 8.3
2004-02-24 07:34:13 51°14.956 2°54.036 329 12.4 322 8.3
2004-02-24 07:34:18 51°14.97 2°54.019 329.1 12.5 322 8.3
2004-02-24 07:34:22 51°14.981 2°54.005 329.4 12.7 322 8.4
2004-02-24 07:34:28 51°14.998 2°53.983 329.2 12.9 321 8.4
2004-02-24 07:34:33 51°15.012 2°53.965 328.2 13 320 8.3
2004-02-24 07:34:38 51°15.026 2°53.946 327.7 13.1 320 8.4
2004-02-24 07:34:42 51°15.037 2°53.931 327.5 13.3 320 8.6
2004-02-24 07:34:48 51°15.054 2°53.908 327.6 13.4 320 8.5
2004-02-24 07:34:53 51°15.068 2°53.889 327.6 13.4 321 8.6
2004-02-24 07:34:58 51°15.083 2°53.87 328 13.4 320 8.6
2004-02-24 07:35:02 51°15.095 2°53.855 328 13.4 321 8.6
2004-02-24 07:35:08 51°15.112 2°53.832 328.1 13.5 320 8.5
2004-02-24 07:35:13 51°15.126 2°53.813 328 13.5 320 8.5
2004-02-24 07:35:18 51°15.141 2°53.793 327.8 13.5 320 8.6
2004-02-24 07:35:22 51°15.153 2°53.779 327.9 13.6 321 8.6
2004-02-24 07:35:28 51°15.171 2°53.756 328 13.6 321 8.6
2004-02-24 07:35:33 51°15.186 2°53.739 329.7 13.7 325 8.7
2004-02-24 07:35:38 51°15.202 2°53.723 332.4 13.7 327 8.8
2004-02-24 07:35:42 51°15.215 2°53.711 334.7 13.6 329 8.8
2004-02-24 07:35:48 51°15.235 2°53.694 338.2 13.6 332 8.8
2004-02-24 07:35:53 51°15.252 2°53.681 339.4 13.6 334 8.8
2004-02-24 07:35:58 51°15.269 2°53.668 341.3 13.6 334 9.1
2004-02-24 07:36:02 51°15.283 2°53.658 342.2 13.6 335 8.9
2004-02-24 07:36:08 51°15.303 2°53.642 342.5 13.7 334 9.1
2004-02-24 07:36:13 51°15.321 2°53.628 342.5 13.8 334 9.1
2004-02-24 07:36:18 51°15.338 2°53.615 341.5 13.8 333 9.1
2004-02-24 07:36:22 51°15.351 2°53.604 340.7 13.7 333 9.2
2004-02-24 07:36:28 51°15.371 2°53.587 340.4 13.7 333 9.2
2004-02-24 07:36:33 51°15.388 2°53.573 340.2 13.8 333 9.2
2004-02-24 07:36:38 51°15.405 2°53.559 340.1 13.7 333 9.4
2004-02-24 07:36:42 51°15.419 2°53.548 340.4 13.8 332 9.4
2004-02-24 07:36:48 51°15.44 2°53.531 340.3 13.8 333 9.5
2004-02-24 07:36:53 51°15.457 2°53.517 340.4 13.9 333 9.6
2004-02-24 07:36:58 51°15.474 2°53.503 340.6 13.9 333 9.6
2004-02-24 07:37:03 51°15.491 2°53.489 340.7 13.9 333 9.8
2004-02-24 07:37:08 51°15.508 2°53.475 340.8 13.9 332 9.8
2004-02-24 07:37:13 51°15.525 2°53.46 340.5 13.9 333 9.8
2004-02-24 07:37:18 51°15.542 2°53.446 340.5 13.9 333 10
2004-02-24 07:37:22 51°15.556 2°53.435 340.8 14 333 10.1
2004-02-24 07:37:28 51°15.577 2°53.418 340.6 13.9 333 10.2
2004-02-24 07:37:33 51°15.594 2°53.405 340.9 13.9 333 10.3
2004-02-24 07:37:38 51°15.611 2°53.39 341 13.9 332 10.3
2004-02-24 07:37:44 51°15.632 2°53.372 341 13.9 333 10.3
2004-02-24 07:37:48 51°15.645 2°53.361 340.8 13.9 332 10.2
2004-02-24 07:37:52 51°15.659 2°53.349 340.4 13.9 333 10.3
2004-02-24 07:37:58 51°15.68 2°53.331 340.5 13.9 332 10.4
2004-02-24 07:38:02 51°15.693 2°53.32 340.4 13.9 332 10.4
2004-02-24 07:38:08 51°15.714 2°53.303 340.5 13.9 332 10.4
2004-02-24 07:38:13 51°15.731 2°53.289 340.4 13.9 332 10.4
2004-02-24 07:38:18 51°15.747 2°53.274 340.4 13.9 331 10.5
2004-02-24 07:38:22 51°15.761 2°53.262 340 13.8 331 10.5
2004-02-24 07:38:28 51°15.781 2°53.244 340.2 13.9 331 10.6
2004-02-24 07:38:33 51°15.798 2°53.23 340.4 13.9 332 10.6
2004-02-24 07:38:38 51°15.815 2°53.215 340.5 13.9 332 10.6
2004-02-24 07:38:43 51°15.832 2°53.202 340.9 13.7 334 10.7
2004-02-24 07:38:48 51°15.85 2°53.189 342.5 13.8 335 10.7
2004-02-24 07:38:53 51°15.867 2°53.177 343.8 13.8 336 10.7
2004-02-24 07:38:58 51°15.885 2°53.164 344.7 13.7 337 10.8
2004-02-24 07:39:02 51°15.899 2°53.155 345.4 13.6 337 11
2004-02-24 07:39:08 51°15.919 2°53.141 346.3 13.7 338 10.8
2004-02-24 07:39:13 51°15.937 2°53.13 347.1 13.7 338 11
2004-02-24 07:39:18 51°15.955 2°53.119 347.7 13.7 338 10.9
2004-02-24 07:39:22 51°15.969 2°53.111 348.1 13.7 339 11
2004-02-24 07:39:28 51°15.99 2°53.099 348.7 13.7 340 11.1
2004-02-24 07:39:33 51°16.009 2°53.089 349.4 13.8 342 11.1
2004-02-24 07:39:38 51°16.027 2°53.08 350.1 13.8 342 11.1
2004-02-24 07:39:42 51°16.041 2°53.073 350.5 13.7 342 11.2
2004-02-24 07:39:48 51°16.063 2°53.061 350.5 13.7 342 11.2
2004-02-24 07:39:52 51°16.077 2°53.054 349.8 13.7 342 11.2
2004-02-24 07:39:58 51°16.099 2°53.043 349.6 13.7 342 11.3
2004-02-24 07:40:02 51°16.113 2°53.035 349.1 13.7 341 11.2
2004-02-24 07:40:08 51°16.135 2°53.023 349 13.8 342 11.2
2004-02-24 07:40:12 51°16.149 2°53.015 348.9 13.7 341 11.2
2004-02-24 07:40:18 51°16.171 2°53.003 348.7 13.7 341 11.2
2004-02-24 07:40:22 51°16.185 2°52.995 348.7 13.7 341 11.3
2004-02-24 07:40:28 51°16.207 2°52.984 348.9 13.7 341 11.3
2004-02-24 07:40:32 51°16.221 2°52.976 348.9 13.7 342 11.3
2004-02-24 07:40:38 51°16.243 2°52.965 349.3 13.7 342 11.2
2004-02-24 07:40:42 51°16.257 2°52.957 349.1 13.7 341 11.3
2004-02-24 07:40:48 51°16.279 2°52.945 348.8 13.7 341 11.4
2004-02-24 07:40:53 51°16.296 2°52.936 348.8 13.7 341 11.2
2004-02-24 07:40:58 51°16.314 2°52.926 348.7 13.7 341 11.2
2004-02-24 07:41:02 51°16.329 2°52.918 349.1 13.6 341 11.2
2004-02-24 07:41:08 51°16.35 2°52.905 348.9 13.7 341 11.1
2004-02-24 07:41:12 51°16.365 2°52.897 348.7 13.7 341 11.4
2004-02-24 07:41:18 51°16.386 2°52.885 348.6 13.7 340 11
2004-02-24 07:41:22 51°16.4 2°52.878 348.5 13.7 340 11.1
2004-02-24 07:41:28 51°16.422 2°52.865 348.3 13.6 340 11.3
2004-02-24 07:41:32 51°16.436 2°52.857 348.2 13.6 341 11.1
2004-02-24 07:41:38 51°16.457 2°52.845 348.5 13.6 340 11.2
2004-02-24 07:41:43 51°16.475 2°52.835 348.6 13.5 341 10.9
2004-02-24 07:41:48 51°16.493 2°52.825 349.1 13.7 341 11.1
2004-02-24 07:41:52 51°16.508 2°52.817 349 13.7 341 11
2004-02-24 07:41:58 51°16.529 2°52.805 348.7 13.6 340 10.8
2004-02-24 07:42:02 51°16.543 2°52.797 348.3 13.6 340 10.8
2004-02-24 07:42:08 51°16.564 2°52.785 348.3 13.6 340 10.7
2004-02-24 07:42:13 51°16.582 2°52.775 348.3 13.7 340 10.7
2004-02-24 07:42:18 51°16.6 2°52.765 348.4 13.6 341 10.4
2004-02-24 07:42:22 51°16.614 2°52.757 348.4 13.6 340 10.6
2004-02-24 07:42:28 51°16.635 2°52.744 348.3 13.7 340 10.4
2004-02-24 07:42:32 51°16.65 2°52.736 348.3 13.7 340 10.2
2004-02-24 07:42:38 51°16.671 2°52.724 348.3 13.7 340 10
2004-02-24 07:42:42 51°16.685 2°52.715 348.3 13.6 340 9.8
2004-02-24 07:42:48 51°16.707 2°52.703 348.2 13.5 340 9.7
2004-02-24 07:42:53 51°16.724 2°52.692 348 13.5 340 9.4
2004-02-24 07:42:58 51°16.742 2°52.682 348.5 13.6 340 9
2004-02-24 07:43:02 51°16.756 2°52.674 348.5 13.4 341 8.8
2004-02-24 07:43:08 51°16.777 2°52.663 348.6 13.5 341 8.8
2004-02-24 07:43:13 51°16.794 2°52.653 348.9 13.3 341 8.9
2004-02-24 07:43:18 51°16.812 2°52.643 349 13.3 341 8.9
2004-02-24 07:43:23 51°16.83 2°52.633 348.6 13.5 341 8.7
2004-02-24 07:43:28 51°16.848 2°52.623 348.3 13.5 340 8.6
2004-02-24 07:43:32 51°16.862 2°52.615 348.2 13.5 340 8.6
2004-02-24 07:43:38 51°16.883 2°52.603 348.3 13.5 341 8.6
2004-02-24 07:43:42 51°16.897 2°52.596 348 13.5 341 8.7
2004-02-24 07:43:48 51°16.918 2°52.584 347.9 13.4 341 8.8
2004-02-24 07:43:53 51°16.936 2°52.574 348.2 13.4 341 8.9
2004-02-24 07:43:58 51°16.954 2°52.565 348.3 13.6 342 9
2004-02-24 07:44:03 51°16.972 2°52.555 348.6 13.7 341 8.8
2004-02-24 07:44:08 51°16.99 2°52.546 348.9 13.7 342 8.8
2004-02-24 07:44:12 51°17.004 2°52.538 349.2 13.7 342 8.5
2004-02-24 07:44:18 51°17.026 2°52.527 348.8 13.7 342 8.8
2004-02-24 07:44:23 51°17.043 2°52.517 348.7 13.5 341 8.5
2004-02-24 07:44:28 51°17.061 2°52.508 348.8 13.5 342 8.6
2004-02-24 07:44:32 51°17.075 2°52.5 348.3 13.6 341 8.4
2004-02-24 07:44:38 51°17.097 2°52.488 348.2 13.5 341 8.8
2004-02-24 07:44:44 51°17.118 2°52.477 347.7 13.6 341 8.6
2004-02-24 07:44:48 51°17.132 2°52.469 348 13.7 341 8.8
2004-02-24 07:44:52 51°17.147 2°52.461 348.2 13.7 341 9
2004-02-24 07:44:58 51°17.168 2°52.45 348.2 13.7 341 8.9
2004-02-24 07:45:03 51°17.186 2°52.44 348.5 13.7 341 8.9
2004-02-24 07:45:08 51°17.204 2°52.43 348.5 13.7 341 8.8
2004-02-24 07:45:13 51°17.222 2°52.42 348.3 13.8 341 8.9
2004-02-24 07:45:18 51°17.241 2°52.41 348.1 13.8 341 9.1
2004-02-24 07:45:22 51°17.255 2°52.402 348.1 13.8 340 9
2004-02-24 07:45:28 51°17.277 2°52.389 347.7 13.8 340 9.2
2004-02-24 07:45:33 51°17.294 2°52.379 347.4 13.8 340 9.2
2004-02-24 07:45:38 51°17.313 2°52.368 347 13.8 339 9.4
2004-02-24 07:45:44 51°17.334 2°52.356 347 13.9 340 9.2
2004-02-24 07:45:48 51°17.349 2°52.348 347.3 13.8 340 9.1
2004-02-24 07:45:53 51°17.367 2°52.337 347.7 13.9 340 9.3
2004-02-24 07:45:58 51°17.384 2°52.325 347.3 13.8 339 9.2
2004-02-24 07:46:03 51°17.401 2°52.311 344 13.8 333 9.2
2004-02-24 07:46:08 51°17.417 2°52.296 340.1 13.7 329 9.4
2004-02-24 07:46:13 51°17.433 2°52.279 337.5 13.7 327 9.2
2004-02-24 07:46:18 51°17.449 2°52.261 334.3 13.7 326 9.4
2004-02-24 07:46:22 51°17.461 2°52.247 332.4 13.8 325 9.3
2004-02-24 07:46:28 51°17.48 2°52.226 330.9 13.7 324 9.3
2004-02-24 07:46:32 51°17.492 2°52.211 330.6 13.7 323 9.5
2004-02-24 07:46:38 51°17.511 2°52.189 330.2 13.7 324 9.3
2004-02-24 07:46:43 51°17.526 2°52.171 330.2 13.8 324 9.4
2004-02-24 07:46:48 51°17.541 2°52.152 330.5 13.9 322 9.4
2004-02-24 07:46:53 51°17.556 2°52.131 328.9 13.9 318 9.4
2004-02-24 07:46:58 51°17.569 2°52.109 324.3 13.8 315 9.3
2004-02-24 07:47:02 51°17.579 2°52.091 320.6 13.8 313 9.5
2004-02-24 07:47:08 51°17.593 2°52.062 317.6 13.9 310 9.4
2004-02-24 07:47:13 51°17.605 2°52.038 315.9 13.8 307 9.5
2004-02-24 07:47:18 51°17.616 2°52.013 313.7 13.8 306 9.4
2004-02-24 07:47:23 51°17.628 2°51.988 312.9 13.9 306 9.4
2004-02-24 07:47:28 51°17.639 2°51.963 312.4 14 305 9.4
2004-02-24 07:47:32 51°17.648 2°51.943 312 13.9 306 9.3
2004-02-24 07:47:38 51°17.661 2°51.913 312 13.9 306 9.2
2004-02-24 07:47:42 51°17.67 2°51.893 312.5 13.9 306 9.3
2004-02-24 07:47:48 51°17.684 2°51.864 313.1 13.8 306 9.3
2004-02-24 07:47:53 51°17.696 2°51.839 313.5 13.8 307 9.2
2004-02-24 07:47:58 51°17.708 2°51.815 313.6 13.8 308 9.2
2004-02-24 07:48:03 51°17.719 2°51.791 314 13.9 307 9.2
2004-02-24 07:48:08 51°17.731 2°51.766 313.8 13.8 307 9.2
2004-02-24 07:48:13 51°17.742 2°51.741 313.5 13.8 307 9
2004-02-24 07:48:18 51°17.754 2°51.717 313.5 13.9 307 9.1
2004-02-24 07:48:22 51°17.763 2°51.698 313.5 13.9 307 9
2004-02-24 07:48:28 51°17.777 2°51.668 313.3 13.8 307 9.1
2004-02-24 07:48:33 51°17.789 2°51.644 313.5 13.9 306 9.1
2004-02-24 07:48:38 51°17.8 2°51.619 313.4 13.9 307 9
2004-02-24 07:48:43 51°17.812 2°51.594 313.3 13.9 307 9
2004-02-24 07:48:48 51°17.823 2°51.57 313.1 14 306 9.1
2004-02-24 07:48:53 51°17.835 2°51.545 312.8 14 306 9.1
2004-02-24 07:48:58 51°17.846 2°51.52 312.9 13.9 307 9.2
2004-02-24 07:49:02 51°17.856 2°51.5 313.5 13.9 307 9.3
2004-02-24 07:49:08 51°17.87 2°51.471 313.5 14 307 9.3
2004-02-24 07:49:13 51°17.881 2°51.446 314 14 307 9.3
2004-02-24 07:49:18 51°17.893 2°51.421 314 14.1 307 9.4
2004-02-24 07:49:22 51°17.903 2°51.401 314.3 14.1 308 9.5
2004-02-24 07:49:28 51°17.917 2°51.372 314.9 14.1 308 9.6
2004-02-24 07:49:32 51°17.927 2°51.352 314.7 14.2 307 9.8
2004-02-24 07:49:38 51°17.941 2°51.322 314.4 14.1 307 10
2004-02-24 07:49:42 51°17.95 2°51.302 314.4 14.2 307 10
2004-02-24 07:49:48 51°17.965 2°51.272 315 14.3 307 9.9
2004-02-24 07:49:53 51°17.977 2°51.247 314.7 14.2 307 10.2
2004-02-24 07:49:58 51°17.989 2°51.223 314.7 14.2 307 10.2
2004-02-24 07:50:03 51°18.001 2°51.198 314.5 14.2 308 10.4
2004-02-24 07:50:08 51°18.013 2°51.173 314.8 14.2 307 10.5
2004-02-24 07:50:13 51°18.025 2°51.147 314.6 14.2 307 10.6
2004-02-24 07:50:18 51°18.036 2°51.123 314.5 14.2 307 10.8
2004-02-24 07:50:24 51°18.051 2°51.093 314.5 14.2 307 11
2004-02-24 07:50:28 51°18.06 2°51.072 314.8 14.2 307 11.1
2004-02-24 07:50:33 51°18.072 2°51.048 315 14.2 307 11.2
2004-02-24 07:50:38 51°18.084 2°51.022 314.6 14.1 307 11.3
2004-02-24 07:50:43 51°18.096 2°50.998 315.1 14.1 308 11.5
2004-02-24 07:50:48 51°18.108 2°50.973 315.1 14.1 307 11.6
2004-02-24 07:50:53 51°18.12 2°50.949 315.6 14.1 308 11.7
2004-02-24 07:50:58 51°18.132 2°50.924 315.4 14.1 308 11.7
2004-02-24 07:51:02 51°18.142 2°50.904 315 14.1 307 11.9
2004-02-24 07:51:08 51°18.156 2°50.875 314.8 14.1 308 11.9
2004-02-24 07:51:13 51°18.168 2°50.85 314.8 14.1 307 12
2004-02-24 07:51:18 51°18.18 2°50.825 315.3 14 308 12
2004-02-24 07:51:22 51°18.189 2°50.806 315.1 13.9 307 12.1
2004-02-24 07:51:28 51°18.203 2°50.776 314.4 14 306 12.1
2004-02-24 07:51:33 51°18.215 2°50.751 314.7 14 308 12.1
2004-02-24 07:51:38 51°18.227 2°50.727 314.8 14.1 307 12.2
2004-02-24 07:51:43 51°18.239 2°50.702 315.1 14 308 12.3
2004-02-24 07:51:48 51°18.251 2°50.678 315.1 14 308 12.4
2004-02-24 07:51:53 51°18.263 2°50.653 315.3 14 308 12.6
2004-02-24 07:51:58 51°18.275 2°50.629 315.4 14 308 12.5
2004-02-24 07:52:02 51°18.284 2°50.609 315.3 14 308 12.7
2004-02-24 07:52:08 51°18.299 2°50.58 315 14 308 12.7
2004-02-24 07:52:13 51°18.311 2°50.555 314.9 14.1 308 12.9
2004-02-24 07:52:18 51°18.322 2°50.531 315.1 14.1 308 12.9
2004-02-24 07:52:22 51°18.332 2°50.511 315 14 308 13
2004-02-24 07:52:28 51°18.346 2°50.482 315 14 308 13.1
2004-02-24 07:52:32 51°18.356 2°50.462 315 13.9 308 13.2
2004-02-24 07:52:38 51°18.37 2°50.433 315.4 13.9 308 13.1
2004-02-24 07:52:42 51°18.38 2°50.414 315.3 14 308 13.2
2004-02-24 07:52:48 51°18.395 2°50.385 315.5 14 308 13.1
2004-02-24 07:52:52 51°18.404 2°50.366 315.6 13.9 309 13.1
2004-02-24 07:52:58 51°18.419 2°50.337 315.3 13.9 309 13.1
2004-02-24 07:53:03 51°18.431 2°50.313 315.2 13.9 309 13.2
2004-02-24 07:53:08 51°18.443 2°50.289 315.2 13.9 309 13.3
2004-02-24 07:53:13 51°18.455 2°50.265 315.1 13.9 308 13.3
2004-02-24 07:53:18 51°18.467 2°50.241 315.1 13.8 309 13.3
2004-02-24 07:53:24 51°18.481 2°50.212 315.2 13.8 309 13.3
2004-02-24 07:53:28 51°18.491 2°50.193 315 13.9 309 13.2
2004-02-24 07:53:33 51°18.503 2°50.169 315.4 13.9 308 13.3
2004-02-24 07:53:38 51°18.515 2°50.145 315.4 13.8 309 13.2
2004-02-24 07:53:42 51°18.524 2°50.126 315.2 13.9 308 13.1
2004-02-24 07:53:48 51°18.539 2°50.097 314.8 13.8 309 12.9
2004-02-24 07:53:53 51°18.55 2°50.073 314.9 13.9 307 12.8
2004-02-24 07:53:58 51°18.562 2°50.048 314.4 13.9 308 12.9
2004-02-24 07:54:02 51°18.571 2°50.028 314.6 13.9 307 12.8
2004-02-24 07:54:08 51°18.585 2°49.999 314.1 13.9 307 12.3
2004-02-24 07:54:13 51°18.596 2°49.974 312.9 13.8 305 12.2
2004-02-24 07:54:18 51°18.608 2°49.949 312.2 13.8 307 12.2
2004-02-24 07:54:23 51°18.619 2°49.924 312.3 13.8 306 12
2004-02-24 07:54:28 51°18.63 2°49.898 312 13.9 304 12
2004-02-24 07:54:33 51°18.641 2°49.873 312 13.9 305 12
2004-02-24 07:54:38 51°18.652 2°49.848 311.7 13.9 305 11.8
2004-02-24 07:54:43 51°18.663 2°49.823 311.8 13.9 305 12
2004-02-24 07:54:48 51°18.674 2°49.798 312.2 13.9 305 11.8
2004-02-24 07:54:53 51°18.685 2°49.773 312.1 13.9 305 11
2004-02-24 07:54:58 51°18.696 2°49.748 312.2 13.9 305 10.7
2004-02-24 07:55:03 51°18.707 2°49.723 312 13.8 305 10.5
2004-02-24 07:55:08 51°18.718 2°49.698 312 13.8 305 10.6
2004-02-24 07:55:13 51°18.729 2°49.673 312.2 13.9 305 10.3
2004-02-24 07:55:18 51°18.74 2°49.647 312.2 13.9 304 10.2
2004-02-24 07:55:22 51°18.749 2°49.627 312 13.9 305 10.2
2004-02-24 07:55:28 51°18.762 2°49.597 312 13.8 304 9.9
2004-02-24 07:55:32 51°18.771 2°49.576 312 13.9 304 9.8
2004-02-24 07:55:38 51°18.784 2°49.546 311.4 13.9 305 9.7
2004-02-24 07:55:42 51°18.793 2°49.526 311.8 13.8 305 9.6
2004-02-24 07:55:48 51°18.807 2°49.496 312 13.9 306 9.5
2004-02-24 07:55:53 51°18.818 2°49.47 312.4 13.9 305 9.5
2004-02-24 07:55:58 51°18.829 2°49.445 312.7 13.9 305 9.6
2004-02-24 07:56:02 51°18.838 2°49.425 312.4 14 305 9.6
2004-02-24 07:56:08 51°18.852 2°49.395 312.5 14.1 305 9.6
2004-02-24 07:56:12 51°18.861 2°49.374 312.1 14.1 305 9.7
2004-02-24 07:56:18 51°18.874 2°49.343 312.8 14.1 306 10
2004-02-24 07:56:22 51°18.884 2°49.323 312.6 14.2 305 10.8
2004-02-24 07:56:28 51°18.897 2°49.292 312.2 14.3 305 11
2004-02-24 07:56:32 51°18.906 2°49.271 311.8 14.3 304 11
2004-02-24 07:56:38 51°18.92 2°49.24 311.9 14.3 305 11
2004-02-24 07:56:43 51°18.932 2°49.214 312.1 14.3 305 10.7
2004-02-24 07:56:48 51°18.943 2°49.188 312.4 14.3 306 11
2004-02-24 07:56:53 51°18.955 2°49.163 312.6 14.3 306 10.7
2004-02-24 07:56:58 51°18.966 2°49.137 312.6 14.2 305 10.7
2004-02-24 07:57:02 51°18.975 2°49.117 312.8 14.1 306 10.8
2004-02-24 07:57:08 51°18.989 2°49.086 312 14.2 304 10.8
2004-02-24 07:57:13 51°19 2°49.06 312.2 14.2 305 10.8
2004-02-24 07:57:18 51°19.012 2°49.035 312.2 14.3 305 11.1
2004-02-24 07:57:22 51°19.021 2°49.014 312.4 14.2 306 11.2
2004-02-24 07:57:28 51°19.035 2°48.984 312.4 14.2 306 11.6
2004-02-24 07:57:32 51°19.044 2°48.963 312.4 14.3 306 12
2004-02-24 07:57:38 51°19.058 2°48.932 312.1 14.3 305 12.4
2004-02-24 07:57:42 51°19.067 2°48.912 312.5 14.3 305 12.7
2004-02-24 07:57:48 51°19.081 2°48.881 312.2 14.3 305 13
2004-02-24 07:57:53 51°19.092 2°48.855 311.9 14.2 306 13.1
2004-02-24 07:57:58 51°19.103 2°48.829 312 14.3 305 13.3
2004-02-24 07:58:03 51°19.114 2°48.803 311.4 14.3 304 13.5
2004-02-24 07:58:08 51°19.126 2°48.777 311.8 14.2 305 13.8
2004-02-24 07:58:13 51°19.137 2°48.752 312 14.1 304 13.8
2004-02-24 07:58:18 51°19.148 2°48.726 312.3 14.1 306 14
2004-02-24 07:58:23 51°19.16 2°48.7 312.2 14.2 304 14.1
2004-02-24 07:58:28 51°19.171 2°48.675 312.2 14.2 305 14.3
2004-02-24 07:58:33 51°19.182 2°48.649 312 14.2 305 14.5
2004-02-24 07:58:38 51°19.193 2°48.623 312 14.2 305 14.7
2004-02-24 07:58:42 51°19.203 2°48.603 312 14.1 305 15
2004-02-24 07:58:48 51°19.216 2°48.572 312.6 14.1 305 15.1
2004-02-24 07:58:52 51°19.225 2°48.552 312.6 14.1 305 15.5
2004-02-24 07:58:58 51°19.239 2°48.521 312.4 14.1 306 15.6
2004-02-24 07:59:02 51°19.248 2°48.501 312.6 14.1 306 15.9
2004-02-24 07:59:08 51°19.261 2°48.471 312.5 14 305 15.9
2004-02-24 07:59:12 51°19.27 2°48.45 312.1 14 305 16.2
2004-02-24 07:59:18 51°19.283 2°48.42 311.8 14 305 16.2
2004-02-24 07:59:22 51°19.292 2°48.399 311.7 14 305 16.5
2004-02-24 07:59:28 51°19.306 2°48.369 311.8 13.9 305 16.6
2004-02-24 07:59:33 51°19.317 2°48.343 312 13.9 305 16.9
2004-02-24 07:59:38 51°19.327 2°48.318 311.7 13.8 304 17.1
2004-02-24 07:59:43 51°19.338 2°48.292 310.6 13.9 304 17.4
2004-02-24 07:59:48 51°19.348 2°48.266 310 13.9 303 17.5
2004-02-24 07:59:53 51°19.359 2°48.24 309.1 13.9 302 17.6
2004-02-24 07:59:58 51°19.369 2°48.213 309.1 13.9 302 17.9
2004-02-24 08:00:02 51°19.377 2°48.193 309.1 13.9 302 18
2004-02-24 08:00:08 51°19.389 2°48.161 308.7 13.9 302 18.2
2004-02-24 08:00:13 51°19.399 2°48.135 308.9 13.8 301 18.3
2004-02-24 08:00:18 51°19.409 2°48.108 308.9 13.9 301 18.6
2004-02-24 08:00:23 51°19.42 2°48.082 308.6 13.9 302 18.8
2004-02-24 08:00:28 51°19.43 2°48.056 309 14 302 19
2004-02-24 08:00:32 51°19.438 2°48.035 309 14 301 19.3
2004-02-24 08:00:38 51°19.45 2°48.003 309 13.9 301 19.4
2004-02-24 08:00:43 51°19.46 2°47.977 309 13.9 301 19.7
2004-02-24 08:00:48 51°19.47 2°47.951 309.1 13.9 301 19.9
2004-02-24 08:00:52 51°19.479 2°47.929 308.9 14 301 20.2
2004-02-24 08:00:58 51°19.491 2°47.898 309.2 14 302 20.3
2004-02-24 08:01:03 51°19.501 2°47.871 309.3 13.9 302 20.2
2004-02-24 08:01:08 51°19.512 2°47.845 309.1 14 302 20.4
2004-02-24 08:01:13 51°19.522 2°47.819 309.2 14 302 20.5
2004-02-24 08:01:18 51°19.532 2°47.793 309.8 14 302 20.6
2004-02-24 08:01:22 51°19.54 2°47.771 309.4 14 301 20.6
2004-02-24 08:01:28 51°19.552 2°47.74 308.6 13.9 301 20.6
2004-02-24 08:01:33 51°19.562 2°47.713 309 14 302 20.7
2004-02-24 08:01:38 51°19.572 2°47.687 309 14 301 20.7
2004-02-24 08:01:42 51°19.58 2°47.665 309 14 301 20.8
2004-02-24 08:01:48 51°19.593 2°47.634 309.3 13.9 301 20.8
2004-02-24 08:01:53 51°19.603 2°47.607 309.2 14 301 20.9
2004-02-24 08:01:58 51°19.613 2°47.581 309.1 13.9 302 20.8
2004-02-24 08:02:02 51°19.621 2°47.56 308.9 14 301 20.9
2004-02-24 08:02:08 51°19.634 2°47.528 309.3 13.9 302 20.9
2004-02-24 08:02:13 51°19.644 2°47.502 309.9 14.1 302 20.7
2004-02-24 08:02:18 51°19.654 2°47.476 309.9 13.9 302 20.8
2004-02-24 08:02:22 51°19.662 2°47.455 309.5 13.8 301 20.8
2004-02-24 08:02:28 51°19.673 2°47.422 308.2 14.1 298 20.7
2004-02-24 08:02:33 51°19.682 2°47.395 306.2 14 297 20.7
2004-02-24 08:02:38 51°19.691 2°47.367 304.9 14 297 20.6
2004-02-24 08:02:43 51°19.7 2°47.34 303.5 14 296 20.6
2004-02-24 08:02:48 51°19.708 2°47.312 302.6 13.9 296 20.6
2004-02-24 08:02:52 51°19.715 2°47.289 302.4 14 294 20.5
2004-02-24 08:02:58 51°19.724 2°47.255 301.7 14 294 20.4
2004-02-24 08:03:03 51°19.732 2°47.226 301.5 14 295 20.4
2004-02-24 08:03:08 51°19.741 2°47.199 301.4 14 296 20.5
2004-02-24 08:03:13 51°19.749 2°47.17 302 14 294 20.1
2004-02-24 08:03:18 51°19.757 2°47.142 301.4 13.9 295 20.2
2004-02-24 08:03:22 51°19.763 2°47.119 301.8 14 294 20.2
2004-02-24 08:03:28 51°19.773 2°47.085 301.5 14 295 20
2004-02-24 08:03:32 51°19.78 2°47.063 301.9 14 295 19.9
2004-02-24 08:03:38 51°19.79 2°47.029 302.1 13.9 295 19.8
2004-02-24 08:03:43 51°19.798 2°47.001 302 14.1 293 19.9
2004-02-24 08:03:48 51°19.806 2°46.972 301.6 14 295 19.7
2004-02-24 08:03:53 51°19.814 2°46.944 301.5 14.1 293 19.3
2004-02-24 08:03:58 51°19.822 2°46.916 301.7 14 295 18.8
2004-02-24 08:04:02 51°19.829 2°46.893 301.7 14 295 18.2
2004-02-24 08:04:08 51°19.838 2°46.859 301.8 14 295 18.9
2004-02-24 08:04:12 51°19.845 2°46.837 301.9 14 295 18.7
2004-02-24 08:04:18 51°19.854 2°46.803 302.3 14.1 294 18.4
2004-02-24 08:04:23 51°19.861 2°46.773 300.4 14.1 290 18.4
2004-02-24 08:04:28 51°19.868 2°46.744 297.8 14.1 289 17.5
2004-02-24 08:04:33 51°19.874 2°46.715 296.6 14 288 17.8
2004-02-24 08:04:38 51°19.88 2°46.685 295.1 14.1 287 17.5
2004-02-24 08:04:43 51°19.886 2°46.655 293.9 14.1 287 17
2004-02-24 08:04:48 51°19.891 2°46.625 293.9 14.2 286 15.5
2004-02-24 08:04:53 51°19.897 2°46.595 293.1 14.1 287 16.9
2004-02-24 08:04:58 51°19.902 2°46.564 293.1 14.3 285 16.3
2004-02-24 08:05:02 51°19.907 2°46.54 293.4 14.2 288 15.3
2004-02-24 08:05:08 51°19.914 2°46.504 293.4 14.3 286 15.5
2004-02-24 08:05:13 51°19.92 2°46.474 293.7 14.2 287 14.1
2004-02-24 08:05:18 51°19.926 2°46.443 293.2 14.2 287 14.6
2004-02-24 08:05:23 51°19.932 2°46.413 293.2 14.2 288 12.9
2004-02-24 08:05:28 51°19.937 2°46.383 293.6 14.2 286 14.6
2004-02-24 08:05:33 51°19.943 2°46.353 293.2 14.2 288 14.5
2004-02-24 08:05:38 51°19.949 2°46.323 293.7 14.3 287 14.6
2004-02-24 08:05:43 51°19.955 2°46.293 293.4 14.1 287 14.3
2004-02-24 08:05:48 51°19.961 2°46.263 293.9 14.3 288 12.1
2004-02-24 08:05:53 51°19.967 2°46.233 294 14.3 287 13.5
2004-02-24 08:05:58 51°19.973 2°46.203 293.4 14.2 287 12.8
2004-02-24 08:06:02 51°19.978 2°46.179 294.3 14.3 287 12.1
2004-02-24 08:06:08 51°19.985 2°46.143 294.1 14.3 288 11.4
2004-02-24 08:06:13 51°19.991 2°46.113 294 14.3 287 12.8
2004-02-24 08:06:18 51°19.997 2°46.083 293.5 14.2 288 11.3
2004-02-24 08:06:22 51°20.001 2°46.059 293.5 14.3 287 13.1
2004-02-24 08:06:28 51°20.009 2°46.022 293.2 14.4 288 13.6
2004-02-24 08:06:33 51°20.015 2°45.992 293.3 14.4 287 13.1
2004-02-24 08:06:38 51°20.021 2°45.961 293.6 14.4 287 13.4
2004-02-24 08:06:43 51°20.026 2°45.931 293.2 14.4 286 13
2004-02-24 08:06:48 51°20.032 2°45.901 293.6 14.3 287 10.6
2004-02-24 08:06:53 51°20.037 2°45.87 293.6 14.3 287 13
2004-02-24 08:06:58 51°20.043 2°45.84 293 14.2 287 14
2004-02-24 08:07:03 51°20.049 2°45.81 293.5 14.3 287 14.3
2004-02-24 08:07:08 51°20.055 2°45.779 293.4 14.5 288 14.6
2004-02-24 08:07:13 51°20.061 2°45.749 293.9 14.4 288 15.3
2004-02-24 08:07:18 51°20.067 2°45.718 294.2 14.4 288 14.8
2004-02-24 08:07:22 51°20.072 2°45.694 293.6 14.3 287 11.3
2004-02-24 08:07:28 51°20.078 2°45.657 293.7 14.4 288 13.8
2004-02-24 08:07:33 51°20.085 2°45.627 293.6 14.4 287 16.3
2004-02-24 08:07:38 51°20.091 2°45.597 293.9 14.5 287 16.8
2004-02-24 08:07:43 51°20.097 2°45.566 294 14.5 287 17.7
2004-02-24 08:07:48 51°20.103 2°45.535 294.4 14.6 288 18.8
2004-02-24 08:07:52 51°20.108 2°45.511 294.4 14.4 288 19.7
2004-02-24 08:07:58 51°20.115 2°45.474 294.3 14.4 287 20.2
2004-02-24 08:08:02 51°20.12 2°45.45 293.9 14.4 287 20.6
2004-02-24 08:08:08 51°20.127 2°45.413 294 14.4 287 21.1
2004-02-24 08:08:12 51°20.132 2°45.389 294.4 14.3 288 21.4
2004-02-24 08:08:18 51°20.139 2°45.353 294.5 14.3 287 21.1
2004-02-24 08:08:22 51°20.144 2°45.329 294.1 14.3 287 21.3
2004-02-24 08:08:28 51°20.151 2°45.292 293.9 14.2 288 21.6
2004-02-24 08:08:33 51°20.157 2°45.262 294.3 14.3 287 21.8
2004-02-24 08:08:38 51°20.163 2°45.232 294.1 14.3 286 21.9
2004-02-24 08:08:42 51°20.167 2°45.207 293.9 14.3 288 22.2
2004-02-24 08:08:48 51°20.174 2°45.171 294.3 14.3 286 22
2004-02-24 08:08:53 51°20.179 2°45.141 293.5 14.3 286 22.1
2004-02-24 08:08:58 51°20.184 2°45.11 292.2 14.3 284 22.5
2004-02-24 08:09:03 51°20.189 2°45.08 290.9 14.2 284 22.4
2004-02-24 08:09:08 51°20.193 2°45.049 290 14.3 283 22.5
2004-02-24 08:09:12 51°20.196 2°45.024 289.6 14.1 282 22.6
2004-02-24 08:09:18 51°20.201 2°44.987 289.3 14.2 282 22.7
2004-02-24 08:09:23 51°20.206 2°44.957 288.5 14.1 282 22.9
2004-02-24 08:09:28 51°20.21 2°44.926 289.2 14.1 284 23
2004-02-24 08:09:32 51°20.214 2°44.902 288.9 14 283 23.2
2004-02-24 08:09:38 51°20.218 2°44.866 289 14 282 23.3
2004-02-24 08:09:43 51°20.223 2°44.835 288.8 14.1 284 23.2
2004-02-24 08:09:48 51°20.227 2°44.805 289.3 14.1 283 23.3
2004-02-24 08:09:52 51°20.23 2°44.781 289.2 14 283 23.3
2004-02-24 08:09:58 51°20.235 2°44.744 288.7 14.1 282 23.4
2004-02-24 08:10:03 51°20.24 2°44.714 289.5 14 283 23.5
2004-02-24 08:10:08 51°20.244 2°44.684 288.9 14 282 23.4
2004-02-24 08:10:12 51°20.247 2°44.66 289 14 283 23.7
2004-02-24 08:10:18 51°20.252 2°44.623 288.7 14 283 23.8
2004-02-24 08:10:23 51°20.257 2°44.593 289.5 14 283 23.8
2004-02-24 08:10:28 51°20.261 2°44.563 289.4 14.1 283 24.1
2004-02-24 08:10:32 51°20.264 2°44.538 288.8 14 283 24.3
2004-02-24 08:10:38 51°20.269 2°44.502 288.8 14.1 282 24.5
2004-02-24 08:10:43 51°20.274 2°44.472 289.5 13.9 283 24.8
2004-02-24 08:10:48 51°20.278 2°44.442 288.9 14 282 25
2004-02-24 08:10:52 51°20.281 2°44.417 288.7 14 282 25.2
2004-02-24 08:10:58 51°20.286 2°44.381 288.5 14 281 25.2
2004-02-24 08:11:02 51°20.288 2°44.356 287.9 14 281 25
2004-02-24 08:11:08 51°20.293 2°44.32 286.6 14 281 25.1
2004-02-24 08:11:13 51°20.297 2°44.289 287.2 14 280 25.5
2004-02-24 08:11:18 51°20.3 2°44.259 287.2 14 281 25.7
2004-02-24 08:11:22 51°20.304 2°44.235 287.7 13.9 282 25.7
2004-02-24 08:11:28 51°20.308 2°44.198 286.6 14 279 25.8
2004-02-24 08:11:33 51°20.312 2°44.168 286.6 14 282 26
2004-02-24 08:11:38 51°20.315 2°44.138 287 13.9 280 26
2004-02-24 08:11:42 51°20.319 2°44.114 286.8 13.9 282 25.8
2004-02-24 08:11:48 51°20.324 2°44.078 286.7 13.9 283 25.8
2004-02-24 08:11:53 51°20.328 2°44.048 287.4 13.9 283 25.8
2004-02-24 08:11:58 51°20.331 2°44.017 287 14 281 25.8
2004-02-24 08:12:03 51°20.336 2°43.987 286.6 13.9 283 25.9
2004-02-24 08:12:08 51°20.339 2°43.957 286.5 14 280 26
2004-02-24 08:12:13 51°20.342 2°43.926 286.6 14.1 279 25.8
2004-02-24 08:12:18 51°20.346 2°43.896 285.9 13.9 282 25.8
2004-02-24 08:12:23 51°20.349 2°43.865 286.3 14 279 26
2004-02-24 08:12:28 51°20.353 2°43.835 286 13.9 280 26
2004-02-24 08:12:33 51°20.356 2°43.804 286.6 13.9 280 25.8
2004-02-24 08:12:38 51°20.359 2°43.773 285 14 279 25.7
2004-02-24 08:12:43 51°20.361 2°43.743 284.4 14.1 278 25.7
2004-02-24 08:12:48 51°20.364 2°43.712 284.2 14 279 25.8
2004-02-24 08:12:53 51°20.366 2°43.681 282.9 14 278 25.8
2004-02-24 08:12:58 51°20.369 2°43.65 283 14 277 25.6
2004-02-24 08:13:03 51°20.37 2°43.619 283 14 276 25.8
2004-02-24 08:13:08 51°20.373 2°43.588 282.7 14 277 25.9
2004-02-24 08:13:12 51°20.375 2°43.564 283 14 278 25.8
2004-02-24 08:13:18 51°20.377 2°43.529 283.7 13.4 276 25.8
2004-02-24 08:13:22 51°20.379 2°43.508 282.8 12.1 278 25.9
2004-02-24 08:13:28 51°20.381 2°43.479 283.4 11.4 275 25.8
2004-02-24 08:13:33 51°20.383 2°43.457 283 10.2 279 25.7
2004-02-24 08:13:38 51°20.384 2°43.436 282.3 9.4 274 25.7
2004-02-24 08:13:42 51°20.385 2°43.42 281.4 9.2 277 25.6
2004-02-24 08:13:48 51°20.385 2°43.398 280.5 8.4 272 25.5
2004-02-24 08:13:53 51°20.385 2°43.381 279.4 7.8 270 25.4
2004-02-24 08:13:58 51°20.385 2°43.365 277.2 7.5 269 25.4
2004-02-24 08:14:02 51°20.385 2°43.353 275.8 7.1 270 25.4
2004-02-24 08:14:08 51°20.384 2°43.336 274.3 6.5 267 25.5
2004-02-24 08:14:13 51°20.383 2°43.322 273.6 6.2 266 25.3
2004-02-24 08:14:18 51°20.383 2°43.309 272.1 6 266 25.3
2004-02-24 08:14:23 51°20.382 2°43.297 271.1 5.8 262 25
2004-02-24 08:14:28 51°20.38 2°43.286 269.4 5.4 262 25
2004-02-24 08:14:33 51°20.379 2°43.275 267.9 5.1 260 25.3
2004-02-24 08:14:38 51°20.378 2°43.265 267.4 4.9 259 25.1
2004-02-24 08:14:43 51°20.377 2°43.254 265.7 4.6 261 25.1
2004-02-24 08:14:48 51°20.375 2°43.245 265.2 4.4 256 25
2004-02-24 08:14:52 51°20.374 2°43.238 264.5 4.2 259 24.9
2004-02-24 08:14:58 51°20.373 2°43.227 264.3 4.1 257 24.9
2004-02-24 08:15:02 51°20.372 2°43.221 263.8 3.9 254 25
2004-02-24 08:15:08 51°20.37 2°43.211 263.6 3.6 252 24.9
2004-02-24 08:15:13 51°20.369 2°43.204 263 3.4 255 24.8
2004-02-24 08:15:18 51°20.367 2°43.197 262.2 3.3 251 24.8
2004-02-24 08:15:22 51°20.367 2°43.192 262.4 3.2 256 24.9
2004-02-24 08:15:28 51°20.365 2°43.184 263 3.1 249 25.1
2004-02-24 08:15:33 51°20.364 2°43.178 263.6 3 248 24.7
2004-02-24 08:15:38 51°20.363 2°43.172 263.8 2.8 258 24.8
2004-02-24 08:15:42 51°20.362 2°43.168 264.8 2.7 250 25.1
2004-02-24 08:15:48 51°20.361 2°43.161 265.6 2.5 254 24.9
2004-02-24 08:15:53 51°20.36 2°43.156 266.3 2.5 255 25
2004-02-24 08:15:58 51°20.359 2°43.151 267.2 2.4 253 24.8
2004-02-24 08:16:02 51°20.358 2°43.147 267.9 2.3 254 24.9
2004-02-24 08:16:08 51°20.358 2°43.142 268.8 2.2 258 24.8
2004-02-24 08:16:13 51°20.357 2°43.137 269.9 2.1 256 24.9
2004-02-24 08:16:18 51°20.356 2°43.133 270.8 2 262 24.7
2004-02-24 08:16:22 51°20.356 2°43.13 271.5 1.8 257 24.7
2004-02-24 08:16:28 51°20.355 2°43.125 272.3 1.8 257 24.9
2004-02-24 08:16:33 51°20.355 2°43.121 273.6 1.7 263 24.8
2004-02-24 08:16:38 51°20.354 2°43.117 274.9 1.7 261 24.9
2004-02-24 08:16:43 51°20.354 2°43.113 276.1 1.9 268 24.7
2004-02-24 08:16:48 51°20.354 2°43.108 279.3 2.2 271 24.6
2004-02-24 08:16:53 51°20.355 2°43.101 283.6 3 275 24.6
2004-02-24 08:16:58 51°20.357 2°43.092 289.9 3.5 285 24.6
2004-02-24 08:17:03 51°20.359 2°43.083 299 4.6 292 24.4
2004-02-24 08:17:08 51°20.363 2°43.072 306.8 4.8 299 24.6
2004-02-24 08:17:13 51°20.367 2°43.06 309.9 6.1 300 24.3
2004-02-24 08:17:18 51°20.372 2°43.045 308.9 6.8 299 24.3
2004-02-24 08:17:22 51°20.376 2°43.033 305.5 7.6 295 24.2
2004-02-24 08:17:28 51°20.382 2°43.011 301.8 9 291 24.1
2004-02-24 08:17:33 51°20.387 2°42.991 300.3 9.4 292 24.1
2004-02-24 08:17:38 51°20.391 2°42.969 298.7 9.9 289 24
2004-02-24 08:17:43 51°20.396 2°42.947 297 10.5 289 23.8
2004-02-24 08:17:48 51°20.401 2°42.923 296.2 11.4 288 23.1
2004-02-24 08:17:53 51°20.406 2°42.897 295.1 11.9 287 22.4
2004-02-24 08:17:58 51°20.411 2°42.87 294 12.5 286 22.4
2004-02-24 08:18:02 51°20.415 2°42.848 293.5 12.5 286 21
2004-02-24 08:18:08 51°20.422 2°42.814 294 13.4 287 20.8
2004-02-24 08:18:13 51°20.428 2°42.785 293.6 13.6 288 22.2
2004-02-24 08:18:18 51°20.433 2°42.755 294 13.8 286 22.4
2004-02-24 08:18:22 51°20.437 2°42.731 293.2 14 287 22.6
2004-02-24 08:18:28 51°20.444 2°42.696 294 14.1 286 22.3
2004-02-24 08:18:33 51°20.45 2°42.666 293.3 14.1 287 21.3
2004-02-24 08:18:38 51°20.456 2°42.635 293.4 14.3 286 18.9
2004-02-24 08:18:43 51°20.462 2°42.605 293.8 14.2 287 20.5
2004-02-24 08:18:48 51°20.467 2°42.575 293.6 14.2 288 21.1
2004-02-24 08:18:53 51°20.473 2°42.545 294.1 14.3 287 20.7
2004-02-24 08:18:58 51°20.479 2°42.515 293.9 14.2 287 18.8
2004-02-24 08:19:02 51°20.484 2°42.49 293.7 14.3 287 20.3
2004-02-24 08:19:08 51°20.49 2°42.454 293.2 14.3 287 20.2
2004-02-24 08:19:12 51°20.494 2°42.429 292.5 14.3 286 17.1
2004-02-24 08:19:18 51°20.501 2°42.392 291.8 14.4 285 18.4
2004-02-24 08:19:22 51°20.505 2°42.368 291.9 14.3 285 19.4
2004-02-24 08:19:28 51°20.511 2°42.331 292 14.4 285 19.5
2004-02-24 08:19:33 51°20.517 2°42.301 291.8 14.3 286 17.8
2004-02-24 08:19:38 51°20.522 2°42.27 292.5 14.4 284 17.2
2004-02-24 08:19:43 51°20.527 2°42.24 292.1 14.3 286 17.9
2004-02-24 08:19:48 51°20.532 2°42.209 292.4 14.3 285 17.9
2004-02-24 08:19:52 51°20.537 2°42.184 291.4 14.4 286 16.4
2004-02-24 08:19:58 51°20.543 2°42.147 292.2 14.5 286 15.2
2004-02-24 08:20:03 51°20.549 2°42.117 292.8 14.3 286 17.5
2004-02-24 08:20:08 51°20.554 2°42.086 292.1 14.4 286 17.1
2004-02-24 08:20:13 51°20.56 2°42.055 292 14.4 286 17.2
2004-02-24 08:20:18 51°20.565 2°42.024 292.9 14.4 285 18.3
2004-02-24 08:20:22 51°20.57 2°42 292.9 14.4 286 19.3
2004-02-24 08:20:28 51°20.576 2°41.963 292.5 14.5 286 19.8
2004-02-24 08:20:33 51°20.582 2°41.932 292.5 14.5 286 18.1
2004-02-24 08:20:38 51°20.588 2°41.901 292.3 14.5 286 18.1
2004-02-24 08:20:43 51°20.593 2°41.87 292.7 14.4 285 18
2004-02-24 08:20:48 51°20.598 2°41.84 292.5 14.4 285 18.7
2004-02-24 08:20:53 51°20.604 2°41.809 292.5 14.4 286 18.7
2004-02-24 08:20:58 51°20.61 2°41.779 293 14.4 287 19.2
2004-02-24 08:21:03 51°20.615 2°41.748 292.7 14.4 286 19.8
2004-02-24 08:21:08 51°20.62 2°41.717 291 14.4 284 20.6
2004-02-24 08:21:13 51°20.624 2°41.686 290.6 14.5 283 21.1
2004-02-24 08:21:18 51°20.629 2°41.655 289.8 14.4 283 21.7
2004-02-24 08:21:22 51°20.632 2°41.63 289.1 14.4 282 21.9
2004-02-24 08:21:28 51°20.637 2°41.593 288.6 14.4 282 18.9
2004-02-24 08:21:33 51°20.641 2°41.561 288.4 14.4 282 18
2004-02-24 08:21:38 51°20.645 2°41.53 288.2 14.4 283 20.3
2004-02-24 08:21:42 51°20.648 2°41.505 288.1 14.4 282 21.9
2004-02-24 08:21:48 51°20.653 2°41.468 288.1 14.4 281 22.3
2004-02-24 08:21:53 51°20.657 2°41.437 288.1 14.4 281 22.9
2004-02-24 08:21:58 51°20.661 2°41.406 288.8 14.4 283 23.5
2004-02-24 08:22:03 51°20.665 2°41.375 288.5 14.3 283 24.4
2004-02-24 08:22:08 51°20.669 2°41.344 288.9 14.2 281 24.9
2004-02-24 08:22:13 51°20.673 2°41.313 288.8 14.2 282 25.4
2004-02-24 08:22:18 51°20.677 2°41.282 287 14.2 279 25.8
2004-02-24 08:22:23 51°20.68 2°41.251 286.6 14.2 280 25.8
2004-02-24 08:22:28 51°20.682 2°41.22 286.1 14.2 279 25.8
2004-02-24 08:22:32 51°20.685 2°41.195 285.1 14.2 279 26
2004-02-24 08:22:38 51°20.689 2°41.158 285.7 14.2 279 26.1
2004-02-24 08:22:43 51°20.692 2°41.126 285.4 14.2 279 26.1
2004-02-24 08:22:48 51°20.695 2°41.096 285.3 14.2 280 26
2004-02-24 08:22:52 51°20.698 2°41.071 285.9 14.2 279 26
2004-02-24 08:22:58 51°20.702 2°41.034 285.5 14.1 279 25.8
2004-02-24 08:23:03 51°20.705 2°41.003 286 14.2 279 25.9
2004-02-24 08:23:08 51°20.708 2°40.971 285.3 14.3 280 25.8
2004-02-24 08:23:13 51°20.711 2°40.94 285.7 14.3 278 25.4
2004-02-24 08:23:18 51°20.714 2°40.909 285.8 14.2 279 25.3
2004-02-24 08:23:22 51°20.717 2°40.884 285.5 14.2 279 25.3
2004-02-24 08:23:28 51°20.721 2°40.847 285.5 14.3 280 25.5
2004-02-24 08:23:32 51°20.723 2°40.822 285.9 14.1 279 25.5
2004-02-24 08:23:38 51°20.727 2°40.785 286.3 14.1 280 25.2
2004-02-24 08:23:43 51°20.731 2°40.754 285.6 14.2 280 25.2
2004-02-24 08:23:48 51°20.734 2°40.723 285.9 14.2 279 25.3
2004-02-24 08:23:53 51°20.738 2°40.693 286 14.1 281 25.1
2004-02-24 08:23:58 51°20.741 2°40.661 286.5 14.2 280 25.1
2004-02-24 08:24:03 51°20.745 2°40.631 286.5 14.2 280 24.5
2004-02-24 08:24:08 51°20.747 2°40.6 285.9 14.1 278 24.8
2004-02-24 08:24:12 51°20.751 2°40.575 285.8 14.2 281 24.4
2004-02-24 08:24:18 51°20.754 2°40.538 286 14.2 279 24.6
2004-02-24 08:24:23 51°20.758 2°40.507 286 14.2 280 24.3
2004-02-24 08:24:28 51°20.761 2°40.476 286.4 14.2 280 24.5
2004-02-24 08:24:33 51°20.765 2°40.445 286 14.2 279 24.7
2004-02-24 08:24:38 51°20.768 2°40.414 285.9 14.2 280 24.9
2004-02-24 08:24:42 51°20.771 2°40.389 286.3 14.2 280 25
2004-02-24 08:24:48 51°20.774 2°40.352 285.9 14.2 279 25
2004-02-24 08:24:53 51°20.777 2°40.32 284.8 14.2 278 24.9
2004-02-24 08:24:58 51°20.779 2°40.289 284.2 14.2 278 24.9
2004-02-24 08:25:02 51°20.781 2°40.264 283.5 14.2 276 24.5
2004-02-24 08:25:08 51°20.784 2°40.227 282.7 14.3 277 24.1
2004-02-24 08:25:13 51°20.786 2°40.195 282.8 14.3 275 24.2
2004-02-24 08:25:18 51°20.789 2°40.164 282.7 14.3 278 24.2
2004-02-24 08:25:22 51°20.79 2°40.138 282.8 14.3 275 24.5
2004-02-24 08:25:28 51°20.794 2°40.101 282.8 14.4 277 24.6
2004-02-24 08:25:33 51°20.796 2°40.069 282.7 14.3 275 25
2004-02-24 08:25:38 51°20.798 2°40.037 282.4 14.3 275 25.2
2004-02-24 08:25:43 51°20.8 2°40.006 282.6 14.4 276 25
2004-02-24 08:25:48 51°20.803 2°39.974 282.9 14.4 276 24.8
2004-02-24 08:25:53 51°20.805 2°39.942 282.3 14.4 277 24.8
2004-02-24 08:25:58 51°20.808 2°39.911 283 14.3 277 24.7
2004-02-24 08:26:02 51°20.81 2°39.886 283 14.3 276 24.6
2004-02-24 08:26:08 51°20.812 2°39.848 282.9 14.2 276 24.4
2004-02-24 08:26:13 51°20.815 2°39.816 282.9 14.3 277 24.3
2004-02-24 08:26:18 51°20.817 2°39.785 282.4 14.4 277 24.4
2004-02-24 08:26:23 51°20.82 2°39.753 282.8 14.4 278 24.4
2004-02-24 08:26:28 51°20.822 2°39.722 283.2 14.4 277 24
2004-02-24 08:26:33 51°20.825 2°39.69 283.1 14.4 278 23.9
2004-02-24 08:26:38 51°20.828 2°39.659 283.7 14.3 277 24.1
2004-02-24 08:26:42 51°20.829 2°39.633 283.9 14.3 278 24
2004-02-24 08:26:48 51°20.833 2°39.596 282.9 14.4 277 24
2004-02-24 08:26:53 51°20.835 2°39.564 283.6 14.3 277 23.6
2004-02-24 08:26:58 51°20.838 2°39.533 282.9 14.4 277 23.2
2004-02-24 08:27:02 51°20.839 2°39.507 282.8 14.4 276 22.7
2004-02-24 08:27:08 51°20.843 2°39.469 283 14.5 277 23.1
2004-02-24 08:27:13 51°20.845 2°39.438 283.1 14.3 277 23.6
2004-02-24 08:27:18 51°20.848 2°39.406 283.2 14.4 278 23.5
2004-02-24 08:27:22 51°20.85 2°39.381 283.1 14.4 278 23.7
2004-02-24 08:27:28 51°20.853 2°39.343 283.7 14.4 278 23.8
2004-02-24 08:27:33 51°20.856 2°39.312 283.7 14.2 277 23.7
2004-02-24 08:27:38 51°20.858 2°39.28 282.8 14.3 277 23.3
2004-02-24 08:27:42 51°20.861 2°39.255 282.8 14.3 278 23.4
2004-02-24 08:27:48 51°20.863 2°39.218 282.7 14.1 278 23.9
2004-02-24 08:27:53 51°20.866 2°39.186 282.9 14.3 277 23.9
2004-02-24 08:27:58 51°20.869 2°39.155 282.6 14.3 278 23.9
2004-02-24 08:28:03 51°20.871 2°39.123 283.9 14.2 276 23.8
2004-02-24 08:28:08 51°20.874 2°39.092 282.7 14.3 279 23.9
2004-02-24 08:28:13 51°20.876 2°39.061 283 14.4 277 23.6
2004-02-24 08:28:18 51°20.88 2°39.029 283.1 14.3 278 23.2
2004-02-24 08:28:23 51°20.881 2°38.998 283.1 14.3 275 22.9
2004-02-24 08:28:28 51°20.884 2°38.967 282.9 14.3 278 23.8
2004-02-24 08:28:33 51°20.886 2°38.935 283.2 14.3 276 23.9
2004-02-24 08:28:38 51°20.889 2°38.904 282.8 14.3 278 23.2
2004-02-24 08:28:43 51°20.891 2°38.872 283.2 14.3 276 22.6
2004-02-24 08:28:48 51°20.894 2°38.841 282.4 14.4 277 23.6
2004-02-24 08:28:53 51°20.896 2°38.809 283.1 14.3 277 23.6
2004-02-24 08:28:58 51°20.898 2°38.777 282.5 14.4 276 23.6
2004-02-24 08:29:02 51°20.9 2°38.752 282.6 14.4 278 23.4
2004-02-24 08:29:08 51°20.903 2°38.714 283.1 14.5 277 22.7
2004-02-24 08:29:13 51°20.906 2°38.682 283.2 14.4 278 23
2004-02-24 08:29:18 51°20.908 2°38.651 283.4 14.4 276 23.4
2004-02-24 08:29:23 51°20.911 2°38.619 283 14.5 277 23.4
2004-02-24 08:29:28 51°20.913 2°38.587 283.3 14.4 277 23
2004-02-24 08:29:33 51°20.916 2°38.555 283.3 14.4 277 23.3
2004-02-24 08:29:38 51°20.918 2°38.524 283.2 14.5 277 23.3
2004-02-24 08:29:42 51°20.921 2°38.498 283.7 14.4 278 23
2004-02-24 08:29:48 51°20.923 2°38.46 283.8 14.4 278 23
2004-02-24 08:29:53 51°20.926 2°38.429 283 14.5 277 23
2004-02-24 08:29:58 51°20.928 2°38.397 283.1 14.5 277 22.5
2004-02-24 08:30:02 51°20.93 2°38.372 283.2 14.5 277 22.9
2004-02-24 08:30:08 51°20.933 2°38.333 283 14.5 277 23
2004-02-24 08:30:13 51°20.936 2°38.301 283.4 14.5 278 22.6
2004-02-24 08:30:18 51°20.938 2°38.27 284 14.5 276 22.4
2004-02-24 08:30:22 51°20.94 2°38.244 283.4 14.5 276 22.5
2004-02-24 08:30:28 51°20.943 2°38.205 283.4 14.5 276 22.9
2004-02-24 08:30:32 51°20.944 2°38.18 281.7 14.5 276 22.6
2004-02-24 08:30:38 51°20.946 2°38.141 281.6 14.5 275 23.2
2004-02-24 08:30:42 51°20.947 2°38.116 280.9 14.6 275 23
2004-02-24 08:30:48 51°20.949 2°38.077 280.2 14.6 273 23.4
2004-02-24 08:30:53 51°20.95 2°38.045 280.1 14.6 274 22.8
2004-02-24 08:30:58 51°20.951 2°38.013 279.7 14.6 273 22.1
2004-02-24 08:31:03 51°20.953 2°37.98 279.6 14.6 274 22.5
2004-02-24 08:31:08 51°20.954 2°37.948 280.4 14.6 274 23.3
2004-02-24 08:31:13 51°20.955 2°37.916 280 14.6 274 22.8
2004-02-24 08:31:18 51°20.957 2°37.884 280.2 14.5 274 22.4
2004-02-24 08:31:23 51°20.958 2°37.851 280.4 14.6 274 23.3
2004-02-24 08:31:28 51°20.96 2°37.819 280.1 14.6 274 23.5
2004-02-24 08:31:33 51°20.962 2°37.787 280.6 14.6 275 23.5
2004-02-24 08:31:38 51°20.962 2°37.755 280.3 14.5 273 23.4
2004-02-24 08:31:42 51°20.964 2°37.729 279.9 14.6 274 23.3
2004-02-24 08:31:48 51°20.965 2°37.69 280.4 14.6 273 23
2004-02-24 08:31:53 51°20.967 2°37.658 279.7 14.5 274 22.7
2004-02-24 08:31:58 51°20.968 2°37.626 280.1 14.6 273 23.3
2004-02-24 08:32:03 51°20.97 2°37.593 280.1 14.6 274 23.3
2004-02-24 08:32:08 51°20.971 2°37.561 280.6 14.5 274 23.6
2004-02-24 08:32:12 51°20.972 2°37.536 280.2 14.5 275 23.2
2004-02-24 08:32:18 51°20.974 2°37.497 280.1 14.6 273 22.5
2004-02-24 08:32:23 51°20.976 2°37.465 280.1 14.6 275 23.1
2004-02-24 08:32:28 51°20.977 2°37.432 280.3 14.6 274 23
2004-02-24 08:32:32 51°20.978 2°37.406 280 14.6 273 22.3
2004-02-24 08:32:38 51°20.98 2°37.368 280.2 14.5 275 22.7
2004-02-24 08:32:43 51°20.981 2°37.335 279.8 14.6 274 23
2004-02-24 08:32:48 51°20.983 2°37.303 280.1 14.6 275 22.6
2004-02-24 08:32:53 51°20.984 2°37.271 279.7 14.6 274 21.7
2004-02-24 08:32:58 51°20.986 2°37.239 280.5 14.7 275 21.7
2004-02-24 08:33:03 51°20.987 2°37.206 280.5 14.7 275 22.6
2004-02-24 08:33:08 51°20.989 2°37.174 280.3 14.5 274 21.9
2004-02-24 08:33:13 51°20.99 2°37.142 279.6 14.5 274 21.4
2004-02-24 08:33:18 51°20.992 2°37.11 280.4 14.7 276 22.2
2004-02-24 08:33:23 51°20.993 2°37.077 280.7 14.6 274 20.7
2004-02-24 08:33:28 51°20.994 2°37.045 279.5 14.7 273 21.7
2004-02-24 08:33:33 51°20.997 2°37.013 279.6 14.7 276 22.3
2004-02-24 08:33:38 51°20.998 2°36.98 280.2 14.6 273 20.3
2004-02-24 08:33:42 51°20.999 2°36.954 280.4 14.5 276 21.8
2004-02-24 08:33:48 51°21.001 2°36.916 280 14.7 275 22.4
2004-02-24 08:33:53 51°21.003 2°36.884 280.6 14.6 275 22.1
2004-02-24 08:33:58 51°21.005 2°36.851 280.5 14.6 275 20.7
2004-02-24 08:34:02 51°21.006 2°36.826 280.8 14.6 275 22.3
2004-02-24 08:34:08 51°21.008 2°36.787 280.1 14.7 275 23.1
2004-02-24 08:34:13 51°21.01 2°36.755 280.6 14.6 275 23
2004-02-24 08:34:18 51°21.012 2°36.722 280 14.5 274 22.3
2004-02-24 08:34:24 51°21.012 2°36.684 279.6 14.6 273 21.2
2004-02-24 08:34:28 51°21.013 2°36.658 278.8 14.6 273 22.9
2004-02-24 08:34:34 51°21.015 2°36.619 279 14.7 274 23.8
2004-02-24 08:34:38 51°21.016 2°36.593 279.8 14.7 273 23.5
2004-02-24 08:34:43 51°21.018 2°36.56 280.5 14.7 276 21.8
2004-02-24 08:34:48 51°21.019 2°36.528 280 14.7 274 23.4
2004-02-24 08:34:53 51°21.021 2°36.495 279.9 14.7 275 24.7
2004-02-24 08:34:58 51°21.022 2°36.463 280.5 14.7 274 24.6
2004-02-24 08:35:02 51°21.023 2°36.437 280.1 14.8 275 22.2
2004-02-24 08:35:08 51°21.025 2°36.398 280.4 14.8 273 23.6
2004-02-24 08:35:13 51°21.027 2°36.365 279.8 14.8 275 24.7
2004-02-24 08:35:18 51°21.028 2°36.332 280.7 14.7 274 25.5
2004-02-24 08:35:23 51°21.029 2°36.3 280.1 14.8 274 24.9
2004-02-24 08:35:28 51°21.031 2°36.267 280.7 14.7 274 23.8
2004-02-24 08:35:32 51°21.032 2°36.241 280.3 14.7 274 25.7
2004-02-24 08:35:38 51°21.034 2°36.202 280.2 14.7 275 25.6
2004-02-24 08:35:43 51°21.036 2°36.17 280.7 14.7 275 24.9
2004-02-24 08:35:48 51°21.037 2°36.137 280.8 14.7 273 23.4
2004-02-24 08:35:53 51°21.039 2°36.105 280.3 14.8 274 24.3
2004-02-24 08:35:58 51°21.04 2°36.072 280.6 14.7 274 26.2
2004-02-24 08:36:04 51°21.042 2°36.033 280 14.7 274 26.2
2004-02-24 08:36:08 51°21.043 2°36.007 280.7 14.7 274 25.5
2004-02-24 08:36:13 51°21.045 2°35.974 280.7 14.7 273 25.4
2004-02-24 08:36:18 51°21.046 2°35.942 280.1 14.7 275 26.9
2004-02-24 08:36:22 51°21.047 2°35.916 280.1 14.7 273 27.6
2004-02-24 08:36:28 51°21.049 2°35.877 279.8 14.8 275 24.7
2004-02-24 08:36:32 51°21.05 2°35.851 280.5 14.7 275 25.3
2004-02-24 08:36:38 51°21.052 2°35.812 280.4 14.8 274 26.2
2004-02-24 08:36:42 51°21.054 2°35.786 280.2 14.7 275 27
2004-02-24 08:36:48 51°21.055 2°35.747 280 14.7 274 26
2004-02-24 08:36:52 51°21.056 2°35.721 279.9 14.7 275 27.8
2004-02-24 08:36:58 51°21.058 2°35.682 280.4 14.7 274 29
2004-02-24 08:37:03 51°21.059 2°35.649 280.5 14.7 272 28.5